Time;durP1;ratioP1;P1;durP2;ratioP2;P2;SDS_P1;SDS_P2;PMS_P1;PMS_P2;Temp;Humidity;BMP_temperature;BMP_pressure;BME280_temperature;BME280_humidity;BME280_pressure;Samples;Min_cycle;Max_cycle;Signal;HPM_P1;HPM_P2
2023/11/07 00:02:24;;;;;;;;;;;;;;;7.39;100.00;100348.94;6187243;23;19955;-80
2023/11/07 00:04:50;;;;;;;;;;;;;;;7.38;100.00;100358.81;6192932;23;19915;-81
2023/11/07 00:07:16;;;;;;;;;;;;;;;7.34;100.00;100352.19;6209880;23;19932;-81
2023/11/07 00:09:42;;;;;;;;;;;;;;;7.33;100.00;100361.22;6195847;22;19946;-80
2023/11/07 00:12:09;;;;;;;;;;;;;;;7.25;100.00;100358.63;6184949;23;19919;-80
2023/11/07 00:14:34;;;;;;;;;;;;;;;7.25;100.00;100358.63;6185728;23;19920;-81
2023/11/07 00:16:59;;;;;;;;;;;;;;;7.31;100.00;100363.25;6185296;23;19916;-80
2023/11/07 00:19:25;;;;;;;;;;;;;;;7.33;100.00;100365.72;6185323;23;19912;-81
2023/11/07 00:21:50;;;;;;;;;;;;;;;7.31;100.00;100373.97;6184659;23;20284;-81
2023/11/07 00:24:15;;;;;;;;;;;;;;;7.27;100.00;100367.31;6184067;23;20342;-80
2023/11/07 00:26:43;;;;;;;;;;;;;;;7.17;100.00;100366.78;6184184;23;19926;-80
2023/11/07 00:29:11;;;;;;;;;;;;;;;7.29;100.00;100378.69;6181296;23;19973;-80
2023/11/07 00:31:36;;;;;;;;;;;;;;;7.38;100.00;100363.34;6185002;23;19908;-80
2023/11/07 00:34:01;;;;;;;;;;;;;;;7.41;100.00;100368.31;6185573;23;19912;-80
2023/11/07 00:36:27;;;;;;;;;;;;;;;7.34;100.00;100360.22;6187644;23;19908;-80
2023/11/07 00:38:52;;;;;;;;;;;;;;;7.42;100.00;100354.72;6186736;23;19912;-80
2023/11/07 00:41:17;;;;;;;;;;;;;;;7.38;100.00;100361.50;6185524;23;19913;-80
2023/11/07 00:43:43;;;;;;;;;;;;;;;7.46;100.00;100354.34;6184651;23;20015;-80
2023/11/07 00:46:08;;;;;;;;;;;;;;;7.50;100.00;100372.53;6184672;23;19917;-81
2023/11/07 00:48:33;;;;;;;;;;;;;;;7.53;100.00;100371.34;6182951;23;19939;-79
2023/11/07 00:51:00;;;;;;;;;;;;;;;7.53;100.00;100368.66;6184714;23;19908;-80
2023/11/07 00:53:25;;;;;;;;;;;;;;;7.59;100.00;100370.56;6184536;23;19916;-80
2023/11/07 00:55:50;;;;;;;;;;;;;;;7.67;100.00;100370.47;6182755;23;19939;-80
2023/11/07 00:58:16;;;;;;;;;;;;;;;7.65;100.00;100375.19;6185291;23;20373;-80
2023/11/07 01:00:41;;;;;;;;;;;;;;;7.62;100.00;100374.72;6185410;23;20473;-80
2023/11/07 01:03:06;;;;;;;;;;;;;;;7.61;100.00;100373.06;6187164;23;19912;-81
2023/11/07 01:05:32;;;;;;;;;;;;;;;7.62;100.00;100380.91;6198947;23;19923;-80
2023/11/07 01:07:57;;;;;;;;;;;;;;;7.57;100.00;100372.63;6200636;23;19919;-81
2023/11/07 01:10:22;;;;;;;;;;;;;;;7.51;100.00;100378.72;6184189;23;19970;-80
2023/11/07 01:12:48;;;;;;;;;;;;;;;7.47;100.00;100383.66;6186778;23;19935;-80
2023/11/07 01:15:13;;;;;;;;;;;;;;;7.47;100.00;100377.44;6186490;23;19916;-81
2023/11/07 01:17:38;;;;;;;;;;;;;;;7.54;100.00;100387.22;6185663;23;20321;-81
2023/11/07 01:20:06;;;;;;;;;;;;;;;7.52;100.00;100389.25;6186470;23;20237;-80
2023/11/07 01:22:31;;;;;;;;;;;;;;;7.61;100.00;100394.50;6186955;23;19916;-80
2023/11/07 01:24:57;;;;;;;;;;;;;;;7.66;100.00;100392.91;6185953;23;20336;-80
2023/11/07 01:27:22;;;;;;;;;;;;;;;7.65;100.00;100401.16;6188720;23;20325;-79
2023/11/07 01:29:47;;;;;;;;;;;;;;;7.61;100.00;100400.69;6189153;23;20322;-80
2023/11/07 01:32:12;;;;;;;;;;;;;;;7.52;100.00;100391.09;6200263;23;19913;-81
2023/11/07 01:34:40;;;;;;;;;;;;;;;7.42;100.00;100386.88;6210619;23;20213;-80
2023/11/07 01:37:05;;;;;;;;;;;;;;;7.50;100.00;100385.09;6189864;23;19919;-80
2023/11/07 01:39:34;;;;;;;;;;;;;;;7.41;100.00;100379.84;6186648;23;19913;-81
2023/11/07 01:41:59;;;;;;;;;;;;;;;7.31;100.00;100389.22;6185453;23;19916;-80
2023/11/07 01:44:29;;;;;;;;;;;;;;;7.40;100.00;100386.25;6187129;23;20289;-81
2023/11/07 01:46:58;;;;;;;;;;;;;;;7.39;100.00;100376.56;6184416;23;19916;-80
2023/11/07 01:49:23;;;;;;;;;;;;;;;7.41;100.00;100389.75;6185498;23;19928;-81
2023/11/07 01:51:48;;;;;;;;;;;;;;;7.34;100.00;100395.03;6185346;23;20015;-81
2023/11/07 01:54:14;;;;;;;;;;;;;;;7.41;100.00;100395.09;6185414;23;19951;-81
2023/11/07 01:56:39;;;;;;;;;;;;;;;7.34;100.00;100395.03;6183945;23;19956;-80
2023/11/07 01:59:04;;;;;;;;;;;;;;;7.36;100.00;100401.03;6186728;23;19982;-80
2023/11/07 02:01:30;;;;;;;;;;;;;;;7.35;100.00;100402.03;6183329;23;19920;-80
2023/11/07 02:03:58;;;;;;;;;;;;;;;7.38;100.00;100406.19;6184227;23;19923;-80
2023/11/07 02:06:24;;;;;;;;;;;;;;;7.28;100.00;100395.75;6181914;23;20000;-80
2023/11/07 02:08:49;;;;;;;;;;;;;;;7.23;100.00;100403.53;6184556;23;19940;-81
2023/11/07 02:11:15;;;;;;;;;;;;;;;7.22;100.00;100396.53;6184081;23;19928;-80
2023/11/07 02:13:40;;;;;;;;;;;;;;;7.21;100.00;100395.66;6183764;23;19912;-81
2023/11/07 02:16:05;;;;;;;;;;;;;;;7.23;100.00;100398.19;6184567;23;19955;-80
2023/11/07 02:18:31;;;;;;;;;;;;;;;7.20;100.00;100390.53;6184943;23;19920;-80
2023/11/07 02:20:56;;;;;;;;;;;;;;;7.23;100.00;100395.50;6185442;23;20326;-81
2023/11/07 02:23:28;;;;;;;;;;;;;;;7.22;100.00;100389.31;6185238;23;20387;-80
2023/11/07 02:25:53;;;;;;;;;;;;;;;7.21;100.00;100389.50;6185540;23;19916;-81
2023/11/07 02:28:24;;;;;;;;;;;;;;;7.22;100.00;100383.13;6185740;23;19967;-80
2023/11/07 02:30:49;;;;;;;;;;;;;;;7.18;100.00;100368.44;6185949;23;20472;-81
2023/11/07 02:33:14;;;;;;;;;;;;;;;7.18;100.00;100387.19;6184986;23;19916;-81
2023/11/07 02:35:41;;;;;;;;;;;;;;;7.20;100.00;100387.84;6184596;23;20416;-81
2023/11/07 02:38:06;;;;;;;;;;;;;;;7.14;100.00;100384.06;6185891;23;20285;-81
2023/11/07 02:40:32;;;;;;;;;;;;;;;7.10;100.00;100380.91;6185144;23;19957;-81
2023/11/07 02:42:57;;;;;;;;;;;;;;;7.10;100.00;100380.91;6184376;23;19991;-81
2023/11/07 02:45:22;;;;;;;;;;;;;;;7.02;100.00;100377.50;6184092;23;19944;-80
2023/11/07 02:47:48;;;;;;;;;;;;;;;7.05;100.00;100375.31;6183226;23;19923;-80
2023/11/07 02:50:13;;;;;;;;;;;;;;;6.95;100.00;100380.09;6185706;23;19935;-81
2023/11/07 02:52:38;;;;;;;;;;;;;;;6.86;100.00;100387.38;6185360;23;19979;-81
2023/11/07 02:55:04;;;;;;;;;;;;;;;6.90;100.00;100387.84;6183786;23;19916;-80
2023/11/07 02:57:29;;;;;;;;;;;;;;;6.90;100.00;100371.78;6185639;23;19912;-80
2023/11/07 02:59:54;;;;;;;;;;;;;;;6.92;100.00;100383.97;6184633;23;19912;-80
2023/11/07 03:02:20;;;;;;;;;;;;;;;6.89;100.00;100376.31;6183943;23;19923;-80
2023/11/07 03:04:46;;;;;;;;;;;;;;;6.87;100.00;100377.53;6185124;23;20333;-80
2023/11/07 03:07:11;;;;;;;;;;;;;;;6.88;100.00;100380.00;6185718;23;19916;-81
2023/11/07 03:09:36;;;;;;;;;;;;;;;6.92;100.00;100375.09;6184162;23;19924;-81
2023/11/07 03:12:02;;;;;;;;;;;;;;;6.89;100.00;100373.63;6184994;23;19919;-80
2023/11/07 03:14:27;;;;;;;;;;;;;;;6.89;100.00;100364.75;6185537;23;19923;-80
2023/11/07 03:16:53;;;;;;;;;;;;;;;6.87;100.00;100370.31;6183447;23;19913;-80
2023/11/07 03:19:22;;;;;;;;;;;;;;;6.91;100.00;100378.78;6159449;23;19947;-81
2023/11/07 03:21:47;;;;;;;;;;;;;;;6.80;100.00;100370.22;6185949;23;19920;-81
2023/11/07 03:24:12;;;;;;;;;;;;;;;6.81;100.00;100376.38;6184849;23;19908;-80
2023/11/07 03:26:37;;;;;;;;;;;;;;;6.75;100.00;100377.97;6186040;23;19918;-80
2023/11/07 03:29:02;;;;;;;;;;;;;;;6.75;100.00;100374.47;6188323;23;20309;-81
2023/11/07 03:31:28;;;;;;;;;;;;;;;6.72;100.00;100369.47;6186417;23;20392;-80
2023/11/07 03:33:53;;;;;;;;;;;;;;;6.80;100.00;100374.72;6187239;23;19913;-81
2023/11/07 03:36:18;;;;;;;;;;;;;;;6.81;100.00;100373.72;6187858;23;19912;-80
2023/11/07 03:38:44;;;;;;;;;;;;;;;6.86;100.00;100376.69;6186488;23;19908;-80
2023/11/07 03:41:10;;;;;;;;;;;;;;;6.81;100.00;100379.91;6187331;23;19913;-80
2023/11/07 03:43:35;;;;;;;;;;;;;;;6.90;100.00;100371.78;6189012;23;19919;-80
2023/11/07 03:46:00;;;;;;;;;;;;;;;6.98;100.00;100385.06;6190408;23;19936;-80
2023/11/07 03:48:25;;;;;;;;;;;;;;;6.92;100.00;100380.44;6195215;23;19923;-80
2023/11/07 03:50:53;;;;;;;;;;;;;;;7.03;100.00;100380.00;6185782;23;19908;-80
2023/11/07 03:53:18;;;;;;;;;;;;;;;6.99;100.00;100384.06;6183706;23;20278;-80
2023/11/07 03:55:44;;;;;;;;;;;;;;;6.91;100.00;100385.00;6185326;23;19912;-80
2023/11/07 03:58:09;;;;;;;;;;;;;;;7.00;100.00;100384.88;6187081;23;19916;-80
2023/11/07 04:00:34;;;;;;;;;;;;;;;7.00;100.00;100388.41;6183901;23;19921;-80
2023/11/07 04:03:00;;;;;;;;;;;;;;;7.05;100.00;100391.38;6184052;23;19987;-80
2023/11/07 04:05:25;;;;;;;;;;;;;;;7.05;100.00;100394.03;6184591;23;19912;-80
2023/11/07 04:07:50;;;;;;;;;;;;;;;7.07;100.00;100389.31;6184978;23;19920;-80
2023/11/07 04:10:15;;;;;;;;;;;;;;;7.09;100.00;100389.94;6184689;23;19920;-80
2023/11/07 04:12:41;;;;;;;;;;;;;;;7.12;100.00;100394.94;6185582;23;20672;-80
2023/11/07 04:15:09;;;;;;;;;;;;;;;7.09;100.00;100400.66;6188124;23;20237;-80
2023/11/07 04:17:34;;;;;;;;;;;;;;;7.04;100.00;100402.22;6187304;23;19912;-80
2023/11/07 04:19:59;;;;;;;;;;;;;;;7.10;100.00;100404.19;6186792;23;19912;-80
2023/11/07 04:22:25;;;;;;;;;;;;;;;7.09;100.00;100399.84;6185693;23;19959;-80
2023/11/07 04:24:50;;;;;;;;;;;;;;;7.01;100.00;100403.44;6184619;23;19994;-80
2023/11/07 04:27:15;;;;;;;;;;;;;;;7.13;100.00;100404.63;6184590;23;19916;-80
2023/11/07 04:29:41;;;;;;;;;;;;;;;7.20;100.00;100409.25;6183947;23;19962;-81
2023/11/07 04:32:06;;;;;;;;;;;;;;;7.17;100.00;100405.09;6184466;23;20333;-80
2023/11/07 04:34:31;;;;;;;;;;;;;;;7.16;100.00;100413.31;6185606;23;19912;-80
2023/11/07 04:36:57;;;;;;;;;;;;;;;7.10;100.00;100399.66;6188326;23;19923;-80
2023/11/07 04:39:28;;;;;;;;;;;;;;;7.21;100.00;100403.69;6202336;23;19923;-79
2023/11/07 04:41:54;;;;;;;;;;;;;;;7.19;100.00;100411.09;6217575;23;19912;-80
2023/11/07 04:44:28;;;;;;;;;;;;;;;7.23;100.00;100406.22;6218356;23;19939;-80
2023/11/07 04:49:27;;;;;;;;;;;;;;;7.25;100.00;100407.69;6213892;23;19920;-80
2023/11/07 04:52:14;;;;;;;;;;;;;;;7.18;100.00;100405.94;6216298;23;19965;-80
2023/11/07 04:54:39;;;;;;;;;;;;;;;7.24;100.00;100397.13;6215198;23;19920;-78
2023/11/07 04:57:07;;;;;;;;;;;;;;;7.24;100.00;100402.50;6217433;23;19958;-79
2023/11/07 04:59:33;;;;;;;;;;;;;;;7.28;100.00;100406.47;6217236;23;19915;-77
2023/11/07 05:02:06;;;;;;;;;;;;;;;7.29;100.00;100397.41;6217548;23;19969;-84
2023/11/07 05:04:31;;;;;;;;;;;;;;;7.34;100.00;100403.06;6193392;23;19942;-79
2023/11/07 05:06:56;;;;;;;;;;;;;;;7.33;100.00;100400.53;6218949;23;19912;-78
2023/11/07 05:09:22;;;;;;;;;;;;;;;7.32;100.00;100399.72;6216238;23;19939;-78
2023/11/07 05:11:47;;;;;;;;;;;;;;;7.31;100.00;100402.59;6216155;23;20232;-79
2023/11/07 05:14:18;;;;;;;;;;;;;;;7.16;100.00;100403.41;6216682;23;19916;-78
2023/11/07 05:16:43;;;;;;;;;;;;;;;7.21;100.00;100403.69;6213959;23;19912;-79
2023/11/07 05:19:09;;;;;;;;;;;;;;;7.24;100.00;100410.53;6217539;23;19967;-78
2023/11/07 05:21:35;;;;;;;;;;;;;;;7.23;100.00;100411.56;6216556;23;19912;-79
2023/11/07 05:24:00;;;;;;;;;;;;;;;7.30;100.00;100415.16;6214994;23;19915;-79
2023/11/07 05:26:25;;;;;;;;;;;;;;;7.24;100.00;100407.84;6216871;23;19912;-79
2023/11/07 05:28:50;;;;;;;;;;;;;;;7.24;100.00;100414.03;6216386;23;19923;-78
2023/11/07 05:31:16;;;;;;;;;;;;;;;7.24;100.00;100422.06;6214388;23;19915;-78
2023/11/07 05:33:43;;;;;;;;;;;;;;;7.25;100.00;100415.72;6216021;23;19912;-79
2023/11/07 05:36:08;;;;;;;;;;;;;;;7.16;100.00;100424.03;6216501;23;19911;-79
2023/11/07 05:38:34;;;;;;;;;;;;;;;7.22;100.00;100428.66;6214523;23;20058;-79
2023/11/07 05:40:59;;;;;;;;;;;;;;;7.24;100.00;100419.41;6216393;23;19916;-78
2023/11/07 05:43:25;;;;;;;;;;;;;;;7.18;100.00;100422.00;6216211;23;19912;-78
2023/11/07 05:45:51;;;;;;;;;;;;;;;7.20;100.00;100423.47;6215126;23;19998;-78
2023/11/07 05:48:16;;;;;;;;;;;;;;;7.11;100.00;100422.72;6215883;23;19916;-79
2023/11/07 05:50:42;;;;;;;;;;;;;;;7.14;100.00;100424.22;6216835;23;19934;-79
2023/11/07 05:53:08;;;;;;;;;;;;;;;7.13;100.00;100415.34;6215915;23;19947;-79
2023/11/07 05:55:33;;;;;;;;;;;;;;;7.11;100.00;100420.03;6215717;23;19931;-79
2023/11/07 05:57:58;;;;;;;;;;;;;;;7.06;100.00;100425.13;6216249;23;19974;-79
2023/11/07 06:00:24;;;;;;;;;;;;;;;7.03;100.00;100422.84;6216249;23;19912;-80
2023/11/07 06:02:50;;;;;;;;;;;;;;;7.05;100.00;100423.47;6215085;23;19966;-79
2023/11/07 06:05:16;;;;;;;;;;;;;;;7.07;100.00;100431.31;6215200;23;20383;-79
2023/11/07 06:07:41;;;;;;;;;;;;;;;7.07;100.00;100439.34;6215616;23;19912;-79
2023/11/07 06:10:07;;;;;;;;;;;;;;;7.10;100.00;100442.47;6218387;23;20356;-79
2023/11/07 06:12:33;;;;;;;;;;;;;;;7.15;100.00;100446.44;6218511;23;19912;-79
2023/11/07 06:14:58;;;;;;;;;;;;;;;7.18;100.00;100454.13;6216998;23;19912;-79
2023/11/07 06:17:26;;;;;;;;;;;;;;;7.20;100.00;100450.22;6215648;23;19962;-79
2023/11/07 06:19:51;;;;;;;;;;;;;;;7.24;100.00;100438.16;6216061;23;19912;-80
2023/11/07 06:22:16;;;;;;;;;;;;;;;7.27;100.00;100453.00;6217529;23;19912;-79
2023/11/07 06:32:22;;;;;;;;;;;;;;;7.29;100.00;100464.34;6184136;23;19920;-79
2023/11/07 06:34:47;;;;;;;;;;;;;;;7.27;100.00;100467.22;6185242;23;19916;-79
2023/11/07 06:37:25;;;;;;;;;;;;;;;7.37;100.00;100468.78;6184821;23;19925;-79
2023/11/07 06:39:50;;;;;;;;;;;;;;;7.45;100.00;100471.38;6185247;23;19979;-80
2023/11/07 06:42:17;;;;;;;;;;;;;;;7.41;100.00;100481.59;6186640;23;20199;-79
2023/11/07 06:44:42;;;;;;;;;;;;;;;7.43;100.00;100479.56;6184952;23;20325;-79
2023/11/07 06:47:23;;;;;;;;;;;;;;;7.49;100.00;100482.53;6186345;23;19916;-80
2023/11/07 07:05:35;;;;;;;;;;;;;;;7.57;100.00;100495.84;6209590;22;19924;-79
2023/11/07 07:08:00;;;;;;;;;;;;;;;7.58;100.00;100494.84;6215447;23;19916;-79
2023/11/07 07:10:26;;;;;;;;;;;;;;;7.57;100.00;100501.22;6216075;23;19943;-79
2023/11/07 07:12:51;;;;;;;;;;;;;;;7.64;100.00;100498.63;6216366;23;19915;-79
2023/11/07 07:15:16;;;;;;;;;;;;;;;7.55;100.00;100505.91;6217485;23;19912;-79
2023/11/07 07:17:41;;;;;;;;;;;;;;;7.57;100.00;100503.88;6219031;23;19923;-79
2023/11/07 07:20:12;;;;;;;;;;;;;;;7.65;100.00;100500.28;6221092;23;19916;-79
2023/11/07 07:22:39;;;;;;;;;;;;;;;7.68;100.00;100503.41;6219850;23;19955;-79
2023/11/07 07:25:05;;;;;;;;;;;;;;;7.48;100.00;100503.16;6226043;23;19911;-79
2023/11/07 07:27:34;;;;;;;;;;;;;;;7.56;100.00;100504.91;6218359;23;19912;-82
2023/11/07 07:30:05;;;;;;;;;;;;;;;7.64;100.00;100506.66;6227887;23;19912;-82
2023/11/07 07:32:35;;;;;;;;;;;;;;;7.69;100.00;100504.22;6221926;23;19916;-82
2023/11/07 07:35:09;;;;;;;;;;;;;;;7.47;100.00;100516.72;6194560;23;19923;-82
2023/11/07 07:37:34;;;;;;;;;;;;;;;7.65;100.00;100508.31;6217403;23;19916;-81
2023/11/07 07:39:59;;;;;;;;;;;;;;;7.71;100.00;100505.72;6215110;23;19916;-81
2023/11/07 07:42:28;;;;;;;;;;;;;;;7.71;100.00;100505.72;6215368;23;19912;-81
2023/11/07 07:44:53;;;;;;;;;;;;;;;7.63;100.00;100511.16;6215782;23;19912;-81
2023/11/07 07:58:19;;;;;;;;;;;;;;;7.82;100.00;100519.66;6217287;22;19919;-80
2023/11/07 08:00:49;;;;;;;;;;;;;;;7.82;100.00;100512.44;6219251;23;19938;-80
2023/11/07 08:06:20;;;;;;;;;;;;;;;7.83;100.00;100521.31;6220957;22;19984;-81
2023/11/07 08:08:48;;;;;;;;;;;;;;;7.82;100.00;100525.00;6215672;22;20332;-82
2023/11/07 08:11:15;;;;;;;;;;;;;;;7.87;100.00;100527.97;6215229;23;19987;-81
2023/11/07 08:13:41;;;;;;;;;;;;;;;7.89;100.00;100532.09;6213711;23;19991;-81
2023/11/07 08:16:06;;;;;;;;;;;;;;;7.87;100.00;100527.97;6215243;23;19958;-82
2023/11/07 08:18:31;;;;;;;;;;;;;;;7.95;100.00;100525.16;6213829;23;20320;-82
2023/11/07 08:20:56;;;;;;;;;;;;;;;7.98;100.00;100532.00;6215705;23;20273;-82
2023/11/07 08:23:26;;;;;;;;;;;;;;;7.98;100.00;100534.69;6215390;23;19919;-82
2023/11/07 08:25:51;;;;;;;;;;;;;;;8.00;100.00;100530.78;6213378;23;20327;-82
2023/11/07 08:28:17;;;;;;;;;;;;;;;8.10;100.00;100532.38;6215702;23;19912;-82
2023/11/07 08:30:43;;;;;;;;;;;;;;;8.21;100.00;100545.28;6216822;23;19919;-82
2023/11/07 08:33:09;;;;;;;;;;;;;;;8.36;100.00;100537.19;6217076;23;19934;-81
2023/11/07 08:35:36;;;;;;;;;;;;;;;8.52;100.00;100548.72;6217365;23;20407;-81
2023/11/07 08:38:03;;;;;;;;;;;;;;;8.60;100.00;100544.06;6214872;23;19912;-81
2023/11/07 08:40:29;;;;;;;;;;;;;;;8.71;100.00;100545.41;6215403;23;19919;-81
2023/11/07 08:42:55;;;;;;;;;;;;;;;8.79;100.00;100547.13;6215101;23;19912;-82
2023/11/07 08:45:21;;;;;;;;;;;;;;;8.88;100.00;100551.31;6215141;23;19907;-82
2023/11/07 08:47:46;;;;;;;;;;;;;;;9.04;100.00;100560.13;6214664;23;19966;-82
2023/11/07 08:50:12;;;;;;;;;;;;;;;9.05;100.00;100556.41;6216311;23;19916;-82
2023/11/07 08:52:37;;;;;;;;;;;;;;;9.05;100.00;100561.78;6216940;23;19908;-82
2023/11/07 08:55:08;;;;;;;;;;;;;;;9.15;100.00;100550.72;6215536;23;19912;-82
2023/11/07 08:57:37;;;;;;;;;;;;;;;9.27;100.00;100561.75;6220993;23;19923;-82
2023/11/07 09:00:05;;;;;;;;;;;;;;;9.22;100.00;100560.47;6232798;23;19939;-82
2023/11/07 09:07:41;;;;;;;;;;;;;;;9.34;100.00;100570.72;6225016;22;19920;-81
2023/11/07 09:20:54;;;;;;;;;;;;;;;9.00;100.00;100580.34;6234178;22;20199;-82
2023/11/07 09:23:44;;;;;;;;;;;;;;;9.02;100.00;100581.81;6214993;23;19920;-82
2023/11/07 09:26:40;;;;;;;;;;;;;;;8.95;100.00;100588.97;6217225;23;19916;-82
2023/11/07 09:29:28;;;;;;;;;;;;;;;8.84;100.00;100592.19;6214074;23;19916;-82
2023/11/07 09:31:53;;;;;;;;;;;;;;;8.61;100.00;100596.72;6217291;23;19912;-82
2023/11/07 09:34:22;;;;;;;;;;;;;;;8.68;100.00;100598.63;6216834;23;19938;-81
2023/11/07 09:36:47;;;;;;;;;;;;;;;8.68;100.00;100598.63;6215884;23;19916;-81
2023/11/07 09:45:44;;;;;;;;;;;;;;;8.85;100.00;100589.28;6214723;23;19923;-80
2023/11/07 09:48:28;;;;;;;;;;;;;;;8.90;100.00;100589.56;6217088;23;19919;-82
2023/11/07 09:56:27;;;;;;;;;;;;;;;9.09;100.00;100600.66;6214830;22;19930;-81
2023/11/07 09:59:28;;;;;;;;;;;;;;;9.09;100.00;100596.13;6213669;23;19912;-82
2023/11/07 10:01:54;;;;;;;;;;;;;;;8.91;100.00;100599.28;6215924;23;19918;-80
2023/11/07 10:07:28;;;;;;;;;;;;;;;9.43;99.91;100588.31;6216071;23;20001;-81
2023/11/07 10:10:06;;;;;;;;;;;;;;;9.54;98.43;100593.16;6217054;23;19984;-81
2023/11/07 10:12:43;;;;;;;;;;;;;;;9.67;97.31;100594.28;6215455;23;19922;-81
2023/11/07 10:15:24;;;;;;;;;;;;;;;9.78;97.42;100599.09;6190086;23;19911;-80
2023/11/07 10:17:59;;;;;;;;;;;;;;;9.91;93.78;100592.97;6217226;23;19955;-80
2023/11/07 10:20:25;;;;;;;;;;;;;;;9.62;95.56;100592.16;6215118;23;19923;-80
2023/11/07 10:22:57;;;;;;;;;;;;;;;9.72;95.38;100599.88;6215164;23;19912;-80
2023/11/07 10:25:29;;;;;;;;;;;;;;;9.81;94.54;100597.84;6216426;23;19919;-80
2023/11/07 10:30:57;;;;;;;;;;;;;;;9.93;94.18;100587.38;6215579;23;20011;-80
2023/11/07 10:33:34;;;;;;;;;;;;;;;9.94;93.28;100591.72;6215858;23;19947;-80
2023/11/07 10:36:02;;;;;;;;;;;;;;;9.98;92.93;100595.69;6215650;23;19916;-80
2023/11/07 10:38:31;;;;;;;;;;;;;;;9.79;94.67;100592.69;6215402;23;19923;-80
2023/11/07 10:40:56;;;;;;;;;;;;;;;9.84;93.63;100598.31;6215763;23;19919;-80
2023/11/07 10:43:33;;;;;;;;;;;;;;;9.91;92.51;100595.66;6215332;23;19912;-80
2023/11/07 10:46:00;;;;;;;;;;;;;;;9.95;92.59;100588.00;6214857;23;20042;-81
2023/11/07 10:48:26;;;;;;;;;;;;;;;10.01;90.67;100579.16;6214213;23;19923;-80
2023/11/07 10:50:51;;;;;;;;;;;;;;;10.06;90.57;100586.63;6188519;23;19912;-81
2023/11/07 10:53:16;;;;;;;;;;;;;;;9.99;89.63;100586.59;6188357;23;20388;-81
2023/11/07 10:55:41;;;;;;;;;;;;;;;10.22;89.86;100588.13;6215962;23;20356;-81
2023/11/07 10:58:07;;;;;;;;;;;;;;;10.43;87.91;100584.50;6214845;23;20232;-82
2023/11/07 11:00:32;;;;;;;;;;;;;;;10.37;87.88;100583.44;6213529;23;19916;-82
2023/11/07 11:02:57;;;;;;;;;;;;;;;10.39;86.67;100584.09;6215880;23;19918;-80
2023/11/07 11:05:26;;;;;;;;;;;;;;;10.32;87.39;100583.19;6189104;23;19915;-80
2023/11/07 11:07:52;;;;;;;;;;;;;;;10.35;86.74;100580.09;6213526;23;19922;-80
2023/11/07 11:10:20;;;;;;;;;;;;;;;10.81;85.91;100575.91;6216973;23;19971;-80
2023/11/07 11:12:45;;;;;;;;;;;;;;;10.70;84.59;100579.16;6189876;23;19916;-80
2023/11/07 11:15:12;;;;;;;;;;;;;;;11.03;83.28;100579.22;6189596;23;19919;-81
2023/11/07 11:17:44;;;;;;;;;;;;;;;11.26;81.47;100585.22;6219549;23;19912;-81
2023/11/07 11:20:22;;;;;;;;;;;;;;;11.31;80.41;100578.16;6217998;23;19915;-82
2023/11/07 11:22:50;;;;;;;;;;;;;;;11.46;79.94;100582.53;6194337;23;19979;-80
2023/11/07 11:25:35;;;;;;;;;;;;;;;11.53;80.85;100583.31;6198330;23;19994;-80
2023/11/07 11:28:01;;;;;;;;;;;;;;;12.45;76.98;100574.31;6220272;23;19912;-80
2023/11/07 11:30:27;;;;;;;;;;;;;;;13.42;71.87;100575.88;6215515;23;19944;-80
2023/11/07 11:33:08;;;;;;;;;;;;;;;13.80;69.80;100577.59;6215554;23;19918;-82
2023/11/07 11:35:38;;;;;;;;;;;;;;;14.39;66.25;100574.38;6215188;23;19939;-82
2023/11/07 11:38:16;;;;;;;;;;;;;;;15.14;64.69;100579.53;6215242;23;19916;-81
2023/11/07 11:40:54;;;;;;;;;;;;;;;15.06;62.75;100580.72;6218944;23;19912;-82
2023/11/07 11:43:20;;;;;;;;;;;;;;;15.61;59.79;100595.81;6214484;23;19986;-82
2023/11/07 11:45:46;;;;;;;;;;;;;;;14.63;63.25;100596.13;6215262;23;19927;-81
2023/11/07 11:48:11;;;;;;;;;;;;;;;13.45;67.23;100591.66;6215466;23;19916;-81
2023/11/07 11:50:37;;;;;;;;;;;;;;;12.99;69.22;100585.59;6230949;23;19900;-82
2023/11/07 11:53:03;;;;;;;;;;;;;;;12.50;70.50;100566.41;6230923;23;19939;-82
2023/11/07 11:55:48;;;;;;;;;;;;;;;12.36;72.19;100587.25;6229075;23;19920;-81
2023/11/07 11:58:16;;;;;;;;;;;;;;;12.28;71.08;100579.38;6206072;23;19927;-82
2023/11/07 12:00:43;;;;;;;;;;;;;;;12.67;69.42;100587.50;6215321;23;19920;-82
2023/11/07 12:03:18;;;;;;;;;;;;;;;14.25;63.43;100597.28;6214493;23;20002;-81
2023/11/07 12:06:22;;;;;;;;;;;;;;;14.85;61.29;100587.50;6212966;23;20326;-82
2023/11/07 12:08:50;;;;;;;;;;;;;;;14.53;61.25;100585.00;6092932;23;19913;-82
2023/11/07 12:20:07;;;;;;;;;;;;;;;13.35;65.56;100591.34;6214493;23;19912;-81
2023/11/07 12:22:40;;;;;;;;;;;;;;;12.93;67.41;100593.75;6214325;23;19912;-82
2023/11/07 12:25:19;;;;;;;;;;;;;;;12.48;69.34;100600.03;6190735;23;19908;-82
2023/11/07 12:33:22;;;;;;;;;;;;;;;12.93;68.65;100583.78;6219852;22;19920;-82
2023/11/07 12:35:50;;;;;;;;;;;;;;;14.13;63.96;100574.69;6214423;23;19993;-82
2023/11/07 12:38:28;;;;;;;;;;;;;;;14.22;63.08;100593.13;6216201;23;20419;-82
2023/11/07 12:47:45;;;;;;;;;;;;;;;12.82;69.75;100585.31;6155783;23;20005;-81
2023/11/07 13:01:00;;;;;;;;;;;;;;;10.85;78.39;100587.91;6148277;23;19919;-81
2023/11/07 13:03:31;;;;;;;;;;;;;;;10.98;78.35;100589.78;6156572;23;19913;-81
2023/11/07 13:05:56;;;;;;;;;;;;;;;11.53;76.77;100586.03;6216958;23;20326;-81
2023/11/07 13:08:28;;;;;;;;;;;;;;;12.25;74.61;100580.63;6216107;23;20340;-80
2023/11/07 13:11:05;;;;;;;;;;;;;;;12.85;72.53;100590.28;6216071;23;19936;-80
2023/11/07 13:13:37;;;;;;;;;;;;;;;13.63;68.46;100587.34;6215849;23;19934;-80
2023/11/07 13:16:02;;;;;;;;;;;;;;;13.85;67.14;100582.34;6216063;23;19908;-80
2023/11/07 13:18:28;;;;;;;;;;;;;;;13.60;67.51;100585.06;6188596;23;20125;-80
2023/11/07 13:20:53;;;;;;;;;;;;;;;12.92;69.25;100584.81;6215922;23;19912;-81
2023/11/07 13:23:18;;;;;;;;;;;;;;;13.72;66.00;100577.91;6215694;23;19966;-80
2023/11/07 13:34:40;;;;;;;;;;;;;;;13.84;65.31;100590.66;6213350;23;19947;-81
2023/11/07 13:37:05;;;;;;;;;;;;;;;14.31;64.10;100595.53;6214946;23;19916;-81
2023/11/07 13:45:45;;;;;;;;;;;;;;;12.48;70.21;100600.03;6148335;23;20004;-80
2023/11/07 13:51:48;;;;;;;;;;;;;;;12.83;70.29;100600.47;6151937;23;19920;-81
2023/11/07 14:00:01;;;;;;;;;;;;;;;12.30;71.22;100603.47;6222653;22;19915;-81
2023/11/07 14:02:39;;;;;;;;;;;;;;;11.83;73.59;100599.00;6215652;23;19916;-80
2023/11/07 14:08:20;;;;;;;;;;;;;;;12.13;73.26;100604.75;6216243;23;19983;-80
2023/11/07 14:13:50;;;;;;;;;;;;;;;11.51;75.63;100606.97;6215332;23;19922;-80
2023/11/07 14:16:53;;;;;;;;;;;;;;;11.13;76.54;100611.13;6216779;23;19915;-81
2023/11/07 14:19:28;;;;;;;;;;;;;;;10.79;78.36;100604.88;6214326;23;20295;-80
2023/11/07 14:21:53;;;;;;;;;;;;;;;10.74;78.14;100608.19;6215255;23;19983;-81
2023/11/07 14:24:18;;;;;;;;;;;;;;;10.73;78.38;100606.53;6215643;23;19966;-80
2023/11/07 14:26:44;;;;;;;;;;;;;;;10.58;79.61;100612.09;6215201;23;20379;-80
2023/11/07 14:29:09;;;;;;;;;;;;;;;10.64;79.60;100613.13;6215305;23;19916;-79
2023/11/07 14:31:36;;;;;;;;;;;;;;;10.60;80.45;100614.56;6214210;23;19923;-80
2023/11/07 14:34:01;;;;;;;;;;;;;;;10.46;81.36;100622.59;6214748;23;19916;-79
2023/11/07 14:36:27;;;;;;;;;;;;;;;10.27;82.09;100624.16;6215917;23;19966;-79
2023/11/07 14:38:52;;;;;;;;;;;;;;;10.26;81.86;100618.97;6215367;23;19916;-80
2023/11/07 14:41:17;;;;;;;;;;;;;;;10.35;81.97;100614.25;6215275;23;20209;-80
2023/11/07 14:43:43;;;;;;;;;;;;;;;10.42;81.57;100618.66;6214843;23;20014;-80
2023/11/07 14:51:46;;;;;;;;;;;;;;;10.33;82.24;100627.91;6185695;23;19962;-80
2023/11/07 15:03:35;;;;;;;;;;;;;;;10.03;81.84;100620.13;6184489;23;20260;-80
2023/11/07 15:26:41;;;;;;;;;;;;;;;9.55;84.42;100626.25;6210291;23;19943;-80
2023/11/07 15:32:31;;;;;;;;;;;;;;;9.21;86.09;100636.72;6217511;23;19938;-80
2023/11/07 15:34:56;;;;;;;;;;;;;;;9.18;86.59;100636.28;6215285;23;19916;-80
2023/11/07 15:43:00;;;;;;;;;;;;;;;9.10;87.06;100635.38;6202251;23;19908;-79